sensor_id;sensor_type;location;lat;lon;timestamp;P1;durP1;ratioP1;P2;durP2;ratioP2
21901;SDS011;11115;46.038;14.612;2023-02-01T00:00:07;3.10;;;2.43;;
21901;SDS011;11115;46.038;14.612;2023-02-01T00:02:36;3.10;;;2.57;;
21901;SDS011;11115;46.038;14.612;2023-02-01T00:05:07;3.83;;;2.70;;
21901;SDS011;11115;46.038;14.612;2023-02-01T00:07:36;3.63;;;2.47;;
21901;SDS011;11115;46.038;14.612;2023-02-01T00:10:05;4.70;;;2.20;;
21901;SDS011;11115;46.038;14.612;2023-02-01T00:12:34;2.20;;;2.00;;
21901;SDS011;11115;46.038;14.612;2023-02-01T00:15:02;4.93;;;2.20;;
21901;SDS011;11115;46.038;14.612;2023-02-01T00:17:29;6.20;;;3.53;;
21901;SDS011;11115;46.038;14.612;2023-02-01T00:19:57;2.53;;;2.30;;
21901;SDS011;11115;46.038;14.612;2023-02-01T00:22:25;8.63;;;3.60;;
21901;SDS011;11115;46.038;14.612;2023-02-01T00:24:52;6.27;;;2.43;;
21901;SDS011;11115;46.038;14.612;2023-02-01T00:27:20;14.43;;;4.20;;
21901;SDS011;11115;46.038;14.612;2023-02-01T00:29:48;10.53;;;3.03;;
21901;SDS011;11115;46.038;14.612;2023-02-01T00:32:15;15.00;;;2.83;;
21901;SDS011;11115;46.038;14.612;2023-02-01T00:34:43;11.13;;;3.47;;
21901;SDS011;11115;46.038;14.612;2023-02-01T00:37:11;3.30;;;2.33;;
21901;SDS011;11115;46.038;14.612;2023-02-01T00:39:39;10.97;;;3.13;;
21901;SDS011;11115;46.038;14.612;2023-02-01T00:42:07;2.07;;;1.97;;
21901;SDS011;11115;46.038;14.612;2023-02-01T00:44:36;3.77;;;3.20;;
21901;SDS011;11115;46.038;14.612;2023-02-01T00:47:03;9.73;;;3.43;;
21901;SDS011;11115;46.038;14.612;2023-02-01T00:49:31;9.33;;;2.63;;
21901;SDS011;11115;46.038;14.612;2023-02-01T00:52:00;6.23;;;2.70;;
21901;SDS011;11115;46.038;14.612;2023-02-01T00:54:27;2.90;;;2.10;;
21901;SDS011;11115;46.038;14.612;2023-02-01T00:56:55;2.90;;;2.37;;
21901;SDS011;11115;46.038;14.612;2023-02-01T00:59:23;3.47;;;2.00;;
21901;SDS011;11115;46.038;14.612;2023-02-01T01:01:50;3.37;;;2.37;;
21901;SDS011;11115;46.038;14.612;2023-02-01T01:04:18;6.40;;;2.47;;
21901;SDS011;11115;46.038;14.612;2023-02-01T01:06:46;2.47;;;2.27;;
21901;SDS011;11115;46.038;14.612;2023-02-01T01:09:13;8.60;;;1.70;;
21901;SDS011;11115;46.038;14.612;2023-02-01T01:11:41;12.00;;;2.47;;
21901;SDS011;11115;46.038;14.612;2023-02-01T01:14:09;6.40;;;1.50;;
21901;SDS011;11115;46.038;14.612;2023-02-01T01:16:38;3.13;;;2.13;;
21901;SDS011;11115;46.038;14.612;2023-02-01T01:19:06;10.57;;;2.73;;
21901;SDS011;11115;46.038;14.612;2023-02-01T01:21:33;8.70;;;3.63;;
21901;SDS011;11115;46.038;14.612;2023-02-01T01:24:02;7.13;;;2.17;;
21901;SDS011;11115;46.038;14.612;2023-02-01T01:26:29;2.50;;;1.47;;
21901;SDS011;11115;46.038;14.612;2023-02-01T01:28:58;2.00;;;1.60;;
21901;SDS011;11115;46.038;14.612;2023-02-01T01:31:26;4.30;;;3.20;;
21901;SDS011;11115;46.038;14.612;2023-02-01T01:33:56;2.17;;;1.97;;
21901;SDS011;11115;46.038;14.612;2023-02-01T01:36:26;9.53;;;2.43;;
21901;SDS011;11115;46.038;14.612;2023-02-01T01:38:55;7.70;;;3.37;;
21901;SDS011;11115;46.038;14.612;2023-02-01T01:41:28;6.47;;;2.70;;
21901;SDS011;11115;46.038;14.612;2023-02-01T01:44:06;7.90;;;3.07;;
21901;SDS011;11115;46.038;14.612;2023-02-01T01:47:12;5.13;;;3.07;;
21901;SDS011;11115;46.038;14.612;2023-02-01T01:49:42;8.93;;;3.17;;
21901;SDS011;11115;46.038;14.612;2023-02-01T01:52:11;3.93;;;2.10;;
21901;SDS011;11115;46.038;14.612;2023-02-01T01:54:47;12.60;;;2.13;;
21901;SDS011;11115;46.038;14.612;2023-02-01T01:57:29;1.97;;;1.70;;
21901;SDS011;11115;46.038;14.612;2023-02-01T02:00:09;1.87;;;1.77;;
21901;SDS011;11115;46.038;14.612;2023-02-01T02:02:44;2.60;;;2.23;;
21901;SDS011;11115;46.038;14.612;2023-02-01T02:05:14;5.50;;;1.90;;
21901;SDS011;11115;46.038;14.612;2023-02-01T02:07:46;11.93;;;2.37;;
21901;SDS011;11115;46.038;14.612;2023-02-01T02:10:16;2.27;;;1.97;;
21901;SDS011;11115;46.038;14.612;2023-02-01T02:12:45;3.03;;;1.93;;
21901;SDS011;11115;46.038;14.612;2023-02-01T02:15:15;2.33;;;1.13;;
21901;SDS011;11115;46.038;14.612;2023-02-01T02:17:50;10.70;;;2.10;;
21901;SDS011;11115;46.038;14.612;2023-02-01T02:31:43;12.33;;;3.33;;
21901;SDS011;11115;46.038;14.612;2023-02-01T02:34:27;8.27;;;3.23;;
21901;SDS011;11115;46.038;14.612;2023-02-01T02:40:01;13.33;;;3.47;;
21901;SDS011;11115;46.038;14.612;2023-02-01T02:42:43;3.00;;;2.50;;
21901;SDS011;11115;46.038;14.612;2023-02-01T02:48:20;7.05;;;3.45;;
21901;SDS011;11115;46.038;14.612;2023-02-01T02:50:58;12.40;;;3.70;;
21901;SDS011;11115;46.038;14.612;2023-02-01T02:56:55;9.83;;;2.83;;
21901;SDS011;11115;46.038;14.612;2023-02-01T02:59:43;10.33;;;2.63;;
21901;SDS011;11115;46.038;14.612;2023-02-01T03:02:32;10.90;;;3.43;;
21901;SDS011;11115;46.038;14.612;2023-02-01T03:05:19;9.93;;;3.57;;
21901;SDS011;11115;46.038;14.612;2023-02-01T03:10:34;8.32;;;3.13;;
21901;SDS011;11115;46.038;14.612;2023-02-01T03:21:25;5.13;;;3.17;;
21901;SDS011;11115;46.038;14.612;2023-02-01T03:24:02;9.53;;;3.93;;
21901;SDS011;11115;46.038;14.612;2023-02-01T03:26:38;5.67;;;2.70;;
21901;SDS011;11115;46.038;14.612;2023-02-01T03:29:14;10.70;;;3.30;;
21901;SDS011;11115;46.038;14.612;2023-02-01T03:31:48;7.73;;;2.17;;
21901;SDS011;11115;46.038;14.612;2023-02-01T03:34:16;4.67;;;2.77;;
21901;SDS011;11115;46.038;14.612;2023-02-01T03:36:48;12.30;;;3.87;;
21901;SDS011;11115;46.038;14.612;2023-02-01T03:42:03;6.00;;;3.67;;
21901;SDS011;11115;46.038;14.612;2023-02-01T03:45:00;6.03;;;2.10;;
21901;SDS011;11115;46.038;14.612;2023-02-01T03:47:26;9.73;;;4.60;;
21901;SDS011;11115;46.038;14.612;2023-02-01T03:50:00;16.93;;;5.07;;
21901;SDS011;11115;46.038;14.612;2023-02-01T03:53:07;11.93;;;4.80;;
21901;SDS011;11115;46.038;14.612;2023-02-01T03:55:33;7.00;;;3.03;;
21901;SDS011;11115;46.038;14.612;2023-02-01T03:58:08;12.70;;;4.83;;
21901;SDS011;11115;46.038;14.612;2023-02-01T04:00:40;15.23;;;5.97;;
21901;SDS011;11115;46.038;14.612;2023-02-01T04:03:08;13.17;;;3.90;;
21901;SDS011;11115;46.038;14.612;2023-02-01T04:05:36;9.57;;;4.00;;
21901;SDS011;11115;46.038;14.612;2023-02-01T04:08:06;20.53;;;5.07;;
21901;SDS011;11115;46.038;14.612;2023-02-01T04:10:34;22.20;;;4.60;;
21901;SDS011;11115;46.038;14.612;2023-02-01T04:13:02;14.23;;;4.37;;
21901;SDS011;11115;46.038;14.612;2023-02-01T04:15:29;8.23;;;3.60;;
21901;SDS011;11115;46.038;14.612;2023-02-01T04:17:57;15.53;;;4.43;;
21901;SDS011;11115;46.038;14.612;2023-02-01T04:20:25;6.90;;;2.70;;
21901;SDS011;11115;46.038;14.612;2023-02-01T04:22:53;15.67;;;3.53;;
21901;SDS011;11115;46.038;14.612;2023-02-01T04:25:21;4.97;;;2.57;;
21901;SDS011;11115;46.038;14.612;2023-02-01T04:27:48;4.73;;;2.60;;
21901;SDS011;11115;46.038;14.612;2023-02-01T04:30:16;7.40;;;2.73;;
21901;SDS011;11115;46.038;14.612;2023-02-01T04:32:44;4.63;;;2.37;;
21901;SDS011;11115;46.038;14.612;2023-02-01T04:35:12;6.70;;;2.03;;
21901;SDS011;11115;46.038;14.612;2023-02-01T04:37:40;5.37;;;2.93;;
21901;SDS011;11115;46.038;14.612;2023-02-01T04:40:07;14.10;;;3.00;;
21901;SDS011;11115;46.038;14.612;2023-02-01T04:42:36;7.97;;;3.73;;
21901;SDS011;11115;46.038;14.612;2023-02-01T04:45:03;9.00;;;3.67;;
21901;SDS011;11115;46.038;14.612;2023-02-01T04:47:32;5.47;;;2.13;;
21901;SDS011;11115;46.038;14.612;2023-02-01T04:49:59;9.70;;;3.40;;
21901;SDS011;11115;46.038;14.612;2023-02-01T04:52:27;2.90;;;1.97;;
21901;SDS011;11115;46.038;14.612;2023-02-01T04:54:55;4.40;;;2.60;;
21901;SDS011;11115;46.038;14.612;2023-02-01T04:57:24;5.27;;;2.93;;
21901;SDS011;11115;46.038;14.612;2023-02-01T04:59:52;9.37;;;4.90;;
21901;SDS011;11115;46.038;14.612;2023-02-01T05:02:20;6.20;;;3.70;;
21901;SDS011;11115;46.038;14.612;2023-02-01T05:04:47;9.93;;;4.50;;
21901;SDS011;11115;46.038;14.612;2023-02-01T05:07:16;12.07;;;3.57;;
21901;SDS011;11115;46.038;14.612;2023-02-01T05:09:44;12.00;;;3.67;;
21901;SDS011;11115;46.038;14.612;2023-02-01T05:12:12;7.50;;;2.97;;
21901;SDS011;11115;46.038;14.612;2023-02-01T05:14:57;5.77;;;3.17;;
21901;SDS011;11115;46.038;14.612;2023-02-01T05:17:25;10.70;;;3.03;;
21901;SDS011;11115;46.038;14.612;2023-02-01T05:19:52;9.50;;;3.80;;
21901;SDS011;11115;46.038;14.612;2023-02-01T05:22:20;9.77;;;4.00;;
21901;SDS011;11115;46.038;14.612;2023-02-01T05:24:48;5.70;;;2.70;;
21901;SDS011;11115;46.038;14.612;2023-02-01T05:27:15;12.10;;;3.87;;
21901;SDS011;11115;46.038;14.612;2023-02-01T05:29:43;3.53;;;1.80;;
21901;SDS011;11115;46.038;14.612;2023-02-01T05:32:11;3.87;;;2.23;;
21901;SDS011;11115;46.038;14.612;2023-02-01T05:34:47;8.23;;;2.60;;
21901;SDS011;11115;46.038;14.612;2023-02-01T05:37:15;9.40;;;3.07;;
21901;SDS011;11115;46.038;14.612;2023-02-01T05:39:43;3.07;;;1.97;;
21901;SDS011;11115;46.038;14.612;2023-02-01T05:42:11;3.80;;;2.63;;
21901;SDS011;11115;46.038;14.612;2023-02-01T05:44:38;9.23;;;3.07;;
21901;SDS011;11115;46.038;14.612;2023-02-01T05:47:07;9.70;;;3.80;;
21901;SDS011;11115;46.038;14.612;2023-02-01T05:49:35;11.17;;;2.93;;
21901;SDS011;11115;46.038;14.612;2023-02-01T05:52:03;9.80;;;3.33;;
21901;SDS011;11115;46.038;14.612;2023-02-01T05:54:31;2.67;;;2.00;;
21901;SDS011;11115;46.038;14.612;2023-02-01T05:56:59;4.93;;;2.30;;
21901;SDS011;11115;46.038;14.612;2023-02-01T05:59:26;10.77;;;2.73;;
21901;SDS011;11115;46.038;14.612;2023-02-01T06:01:54;13.27;;;4.10;;
21901;SDS011;11115;46.038;14.612;2023-02-01T06:04:22;15.50;;;4.43;;
21901;SDS011;11115;46.038;14.612;2023-02-01T06:06:49;12.87;;;4.97;;
21901;SDS011;11115;46.038;14.612;2023-02-01T06:09:17;15.63;;;6.37;;
21901;SDS011;11115;46.038;14.612;2023-02-01T06:11:45;19.17;;;5.30;;
21901;SDS011;11115;46.038;14.612;2023-02-01T06:14:12;13.90;;;5.00;;
21901;SDS011;11115;46.038;14.612;2023-02-01T06:16:40;11.23;;;5.07;;
21901;SDS011;11115;46.038;14.612;2023-02-01T06:19:08;17.97;;;5.87;;
21901;SDS011;11115;46.038;14.612;2023-02-01T06:21:36;10.57;;;4.17;;
21901;SDS011;11115;46.038;14.612;2023-02-01T06:24:04;13.43;;;5.13;;
21901;SDS011;11115;46.038;14.612;2023-02-01T06:26:32;8.40;;;5.07;;
21901;SDS011;11115;46.038;14.612;2023-02-01T06:29:00;11.10;;;4.57;;
21901;SDS011;11115;46.038;14.612;2023-02-01T06:31:27;8.43;;;3.50;;
21901;SDS011;11115;46.038;14.612;2023-02-01T06:33:55;13.60;;;3.77;;
21901;SDS011;11115;46.038;14.612;2023-02-01T06:36:23;9.00;;;4.93;;
21901;SDS011;11115;46.038;14.612;2023-02-01T06:38:51;10.17;;;4.30;;
21901;SDS011;11115;46.038;14.612;2023-02-01T06:41:19;14.07;;;4.50;;
21901;SDS011;11115;46.038;14.612;2023-02-01T06:43:47;13.30;;;5.03;;
21901;SDS011;11115;46.038;14.612;2023-02-01T06:46:14;23.93;;;5.80;;
21901;SDS011;11115;46.038;14.612;2023-02-01T06:48:42;7.00;;;3.97;;
21901;SDS011;11115;46.038;14.612;2023-02-01T06:51:18;7.30;;;3.83;;
21901;SDS011;11115;46.038;14.612;2023-02-01T06:53:48;8.87;;;3.93;;
21901;SDS011;11115;46.038;14.612;2023-02-01T06:56:16;11.17;;;4.33;;
21901;SDS011;11115;46.038;14.612;2023-02-01T06:58:44;7.90;;;4.00;;
21901;SDS011;11115;46.038;14.612;2023-02-01T07:01:12;8.00;;;4.17;;
21901;SDS011;11115;46.038;14.612;2023-02-01T07:03:41;8.43;;;3.63;;
21901;SDS011;11115;46.038;14.612;2023-02-01T07:06:09;10.70;;;3.97;;
21901;SDS011;11115;46.038;14.612;2023-02-01T07:08:37;10.73;;;4.53;;
21901;SDS011;11115;46.038;14.612;2023-02-01T07:11:09;9.70;;;3.80;;
21901;SDS011;11115;46.038;14.612;2023-02-01T07:13:39;6.83;;;4.23;;
21901;SDS011;11115;46.038;14.612;2023-02-01T07:16:11;12.73;;;3.40;;
21901;SDS011;11115;46.038;14.612;2023-02-01T07:18:40;4.80;;;2.77;;
21901;SDS011;11115;46.038;14.612;2023-02-01T07:21:08;3.67;;;3.37;;
21901;SDS011;11115;46.038;14.612;2023-02-01T07:23:36;10.50;;;4.63;;
21901;SDS011;11115;46.038;14.612;2023-02-01T07:26:04;5.43;;;4.37;;
21901;SDS011;11115;46.038;14.612;2023-02-01T07:28:35;8.47;;;5.17;;
21901;SDS011;11115;46.038;14.612;2023-02-01T07:31:11;8.97;;;3.17;;
21901;SDS011;11115;46.038;14.612;2023-02-01T07:33:41;11.80;;;4.27;;
21901;SDS011;11115;46.038;14.612;2023-02-01T07:36:13;9.90;;;4.87;;
21901;SDS011;11115;46.038;14.612;2023-02-01T07:38:43;9.50;;;5.23;;
21901;SDS011;11115;46.038;14.612;2023-02-01T07:41:13;19.50;;;6.00;;
21901;SDS011;11115;46.038;14.612;2023-02-01T07:43:41;8.93;;;5.53;;
21901;SDS011;11115;46.038;14.612;2023-02-01T07:46:09;7.37;;;4.53;;
21901;SDS011;11115;46.038;14.612;2023-02-01T07:48:38;29.40;;;8.43;;
21901;SDS011;11115;46.038;14.612;2023-02-01T07:51:08;23.50;;;7.40;;
21901;SDS011;11115;46.038;14.612;2023-02-01T07:56:15;55.40;;;16.50;;
21901;SDS011;11115;46.038;14.612;2023-02-01T07:58:48;23.07;;;7.50;;
21901;SDS011;11115;46.038;14.612;2023-02-01T08:01:18;20.30;;;8.18;;
21901;SDS011;11115;46.038;14.612;2023-02-01T08:03:47;12.70;;;6.67;;
21901;SDS011;11115;46.038;14.612;2023-02-01T08:06:16;8.57;;;5.73;;
21901;SDS011;11115;46.038;14.612;2023-02-01T08:08:46;10.73;;;5.37;;
21901;SDS011;11115;46.038;14.612;2023-02-01T08:11:15;9.07;;;5.60;;
21901;SDS011;11115;46.038;14.612;2023-02-01T08:13:43;14.10;;;6.47;;
21901;SDS011;11115;46.038;14.612;2023-02-01T08:16:11;7.90;;;3.97;;
21901;SDS011;11115;46.038;14.612;2023-02-01T08:18:40;20.20;;;6.57;;
21901;SDS011;11115;46.038;14.612;2023-02-01T08:21:12;7.87;;;4.23;;
21901;SDS011;11115;46.038;14.612;2023-02-01T08:23:43;10.43;;;4.77;;
21901;SDS011;11115;46.038;14.612;2023-02-01T08:28:57;11.83;;;3.73;;
21901;SDS011;11115;46.038;14.612;2023-02-01T08:31:27;13.23;;;3.97;;
21901;SDS011;11115;46.038;14.612;2023-02-01T08:33:57;16.60;;;8.40;;
21901;SDS011;11115;46.038;14.612;2023-02-01T08:36:30;8.83;;;3.97;;
21901;SDS011;11115;46.038;14.612;2023-02-01T08:38:58;13.17;;;7.00;;
21901;SDS011;11115;46.038;14.612;2023-02-01T08:41:28;10.67;;;5.90;;
21901;SDS011;11115;46.038;14.612;2023-02-01T08:43:57;7.23;;;3.27;;
21901;SDS011;11115;46.038;14.612;2023-02-01T08:46:25;10.43;;;4.07;;
21901;SDS011;11115;46.038;14.612;2023-02-01T08:48:53;13.33;;;3.93;;
21901;SDS011;11115;46.038;14.612;2023-02-01T08:51:22;6.47;;;3.67;;
21901;SDS011;11115;46.038;14.612;2023-02-01T08:53:50;16.77;;;6.23;;
21901;SDS011;11115;46.038;14.612;2023-02-01T08:56:19;10.17;;;4.93;;
21901;SDS011;11115;46.038;14.612;2023-02-01T08:58:47;8.30;;;4.70;;
21901;SDS011;11115;46.038;14.612;2023-02-01T09:01:15;8.53;;;4.23;;
21901;SDS011;11115;46.038;14.612;2023-02-01T09:03:44;21.47;;;4.57;;
21901;SDS011;11115;46.038;14.612;2023-02-01T09:06:13;8.50;;;3.67;;
21901;SDS011;11115;46.038;14.612;2023-02-01T09:08:42;7.57;;;4.27;;
21901;SDS011;11115;46.038;14.612;2023-02-01T09:11:11;8.23;;;4.63;;
21901;SDS011;11115;46.038;14.612;2023-02-01T09:13:43;8.43;;;4.27;;
21901;SDS011;11115;46.038;14.612;2023-02-01T09:16:11;13.13;;;5.67;;
21901;SDS011;11115;46.038;14.612;2023-02-01T09:18:39;18.17;;;5.77;;
21901;SDS011;11115;46.038;14.612;2023-02-01T09:21:26;8.23;;;4.73;;
21901;SDS011;11115;46.038;14.612;2023-02-01T09:23:54;7.27;;;3.83;;
21901;SDS011;11115;46.038;14.612;2023-02-01T09:26:22;10.13;;;4.50;;
21901;SDS011;11115;46.038;14.612;2023-02-01T09:28:57;7.63;;;4.30;;
21901;SDS011;11115;46.038;14.612;2023-02-01T09:31:24;12.07;;;5.33;;
21901;SDS011;11115;46.038;14.612;2023-02-01T09:33:53;10.47;;;3.90;;
21901;SDS011;11115;46.038;14.612;2023-02-01T09:36:20;15.43;;;6.37;;
21901;SDS011;11115;46.038;14.612;2023-02-01T09:38:49;14.57;;;4.10;;
21901;SDS011;11115;46.038;14.612;2023-02-01T09:47:17;17.63;;;7.57;;
21901;SDS011;11115;46.038;14.612;2023-02-01T09:49:54;7.60;;;4.47;;
21901;SDS011;11115;46.038;14.612;2023-02-01T09:52:38;8.70;;;5.03;;
21901;SDS011;11115;46.038;14.612;2023-02-01T09:55:11;13.15;;;5.45;;
21901;SDS011;11115;46.038;14.612;2023-02-01T09:57:58;7.70;;;3.67;;
21901;SDS011;11115;46.038;14.612;2023-02-01T10:00:40;7.53;;;3.87;;
21901;SDS011;11115;46.038;14.612;2023-02-01T10:03:13;7.57;;;4.23;;
21901;SDS011;11115;46.038;14.612;2023-02-01T10:05:57;6.83;;;3.90;;
21901;SDS011;11115;46.038;14.612;2023-02-01T10:09:03;6.80;;;4.17;;
21901;SDS011;11115;46.038;14.612;2023-02-01T10:28:49;6.55;;;4.07;;
21901;SDS011;11115;46.038;14.612;2023-02-01T10:31:21;13.45;;;5.75;;
21901;SDS011;11115;46.038;14.612;2023-02-01T10:33:56;17.80;;;5.20;;
21901;SDS011;11115;46.038;14.612;2023-02-01T10:36:28;10.50;;;4.10;;
21901;SDS011;11115;46.038;14.612;2023-02-01T10:38:58;13.80;;;4.43;;
21901;SDS011;11115;46.038;14.612;2023-02-01T10:41:30;11.17;;;4.87;;
21901;SDS011;11115;46.038;14.612;2023-02-01T10:44:03;11.43;;;4.50;;
21901;SDS011;11115;46.038;14.612;2023-02-01T10:46:34;13.27;;;3.97;;
21901;SDS011;11115;46.038;14.612;2023-02-01T10:49:08;11.30;;;4.27;;
21901;SDS011;11115;46.038;14.612;2023-02-01T10:54:34;7.45;;;3.53;;
21901;SDS011;11115;46.038;14.612;2023-02-01T10:57:08;10.90;;;3.97;;
21901;SDS011;11115;46.038;14.612;2023-02-01T10:59:37;11.87;;;4.53;;
21901;SDS011;11115;46.038;14.612;2023-02-01T11:02:15;7.03;;;4.83;;
21901;SDS011;11115;46.038;14.612;2023-02-01T11:07:24;4.27;;;2.70;;
21901;SDS011;11115;46.038;14.612;2023-02-01T11:09:53;6.00;;;3.37;;
21901;SDS011;11115;46.038;14.612;2023-02-01T11:12:29;6.53;;;3.70;;
21901;SDS011;11115;46.038;14.612;2023-02-01T11:17:45;7.57;;;3.77;;
21901;SDS011;11115;46.038;14.612;2023-02-01T11:20:25;29.90;;;4.53;;
21901;SDS011;11115;46.038;14.612;2023-02-01T11:23:00;5.80;;;3.30;;
21901;SDS011;11115;46.038;14.612;2023-02-01T11:25:28;7.10;;;2.80;;
21901;SDS011;11115;46.038;14.612;2023-02-01T11:28:00;5.40;;;2.40;;
21901;SDS011;11115;46.038;14.612;2023-02-01T11:33:03;5.23;;;2.57;;
21901;SDS011;11115;46.038;14.612;2023-02-01T11:35:32;9.80;;;3.00;;
21901;SDS011;11115;46.038;14.612;2023-02-01T11:38:10;11.20;;;4.03;;
21901;SDS011;11115;46.038;14.612;2023-02-01T11:40:46;7.40;;;3.37;;
21901;SDS011;11115;46.038;14.612;2023-02-01T11:43:28;8.83;;;3.40;;
21901;SDS011;11115;46.038;14.612;2023-02-01T11:48:31;7.65;;;3.33;;
21901;SDS011;11115;46.038;14.612;2023-02-01T12:11:02;13.67;;;4.87;;
21901;SDS011;11115;46.038;14.612;2023-02-01T12:25:25;7.97;;;4.50;;
21901;SDS011;11115;46.038;14.612;2023-02-01T12:31:22;11.77;;;4.43;;
21901;SDS011;11115;46.038;14.612;2023-02-01T12:34:29;14.73;;;5.27;;
21901;SDS011;11115;46.038;14.612;2023-02-01T12:37:03;12.33;;;4.30;;
21901;SDS011;11115;46.038;14.612;2023-02-01T12:42:10;22.97;;;5.33;;
21901;SDS011;11115;46.038;14.612;2023-02-01T12:44:48;13.10;;;4.60;;
21901;SDS011;11115;46.038;14.612;2023-02-01T12:47:24;18.07;;;6.20;;
21901;SDS011;11115;46.038;14.612;2023-02-01T12:50:11;12.43;;;5.53;;
21901;SDS011;11115;46.038;14.612;2023-02-01T12:53:26;18.63;;;5.17;;
21901;SDS011;11115;46.038;14.612;2023-02-01T12:55:44;7.50;;;4.27;;
21901;SDS011;11115;46.038;14.612;2023-02-01T12:58:27;10.50;;;4.63;;
21901;SDS011;11115;46.038;14.612;2023-02-01T13:01:06;9.83;;;5.37;;
21901;SDS011;11115;46.038;14.612;2023-02-01T13:06:45;9.27;;;5.03;;
21901;SDS011;11115;46.038;14.612;2023-02-01T13:09:24;11.70;;;4.28;;
21901;SDS011;11115;46.038;14.612;2023-02-01T13:11:54;9.13;;;4.00;;
21901;SDS011;11115;46.038;14.612;2023-02-01T13:17:18;8.40;;;3.80;;
21901;SDS011;11115;46.038;14.612;2023-02-01T13:27:49;9.40;;;3.77;;
21901;SDS011;11115;46.038;14.612;2023-02-01T13:30:22;9.98;;;4.85;;
21901;SDS011;11115;46.038;14.612;2023-02-01T13:39:02;14.57;;;5.10;;
21901;SDS011;11115;46.038;14.612;2023-02-01T13:41:58;11.47;;;4.27;;
21901;SDS011;11115;46.038;14.612;2023-02-01T13:44:32;9.77;;;4.93;;
21901;SDS011;11115;46.038;14.612;2023-02-01T13:47:11;13.17;;;4.67;;
21901;SDS011;11115;46.038;14.612;2023-02-01T13:49:49;11.10;;;4.57;;
21901;SDS011;11115;46.038;14.612;2023-02-01T13:52:24;13.53;;;5.47;;
21901;SDS011;11115;46.038;14.612;2023-02-01T13:55:37;8.97;;;5.27;;
21901;SDS011;11115;46.038;14.612;2023-02-01T13:57:49;15.33;;;5.27;;
21901;SDS011;11115;46.038;14.612;2023-02-01T14:03:10;15.87;;;5.37;;
21901;SDS011;11115;46.038;14.612;2023-02-01T14:08:14;9.30;;;3.50;;
21901;SDS011;11115;46.038;14.612;2023-02-01T14:10:51;10.73;;;4.03;;
21901;SDS011;11115;46.038;14.612;2023-02-01T14:21:20;10.67;;;3.83;;
21901;SDS011;11115;46.038;14.612;2023-02-01T14:26:24;15.70;;;5.73;;
21901;SDS011;11115;46.038;14.612;2023-02-01T14:28:59;12.80;;;5.00;;
21901;SDS011;11115;46.038;14.612;2023-02-01T14:36:59;8.07;;;4.00;;
21901;SDS011;11115;46.038;14.612;2023-02-01T14:39:31;14.65;;;4.85;;
21901;SDS011;11115;46.038;14.612;2023-02-01T14:42:05;11.87;;;4.00;;
21901;SDS011;11115;46.038;14.612;2023-02-01T14:44:48;9.53;;;4.27;;
21901;SDS011;11115;46.038;14.612;2023-02-01T14:47:26;8.00;;;4.30;;
21901;SDS011;11115;46.038;14.612;2023-02-01T14:52:49;9.13;;;4.13;;
21901;SDS011;11115;46.038;14.612;2023-02-01T14:55:23;6.63;;;3.60;;
21901;SDS011;11115;46.038;14.612;2023-02-01T14:58:16;12.17;;;4.93;;
21901;SDS011;11115;46.038;14.612;2023-02-01T15:00:52;15.03;;;5.37;;
21901;SDS011;11115;46.038;14.612;2023-02-01T15:03:25;32.43;;;12.80;;
21901;SDS011;11115;46.038;14.612;2023-02-01T15:05:59;22.87;;;6.63;;
21901;SDS011;11115;46.038;14.612;2023-02-01T15:08:28;8.77;;;4.70;;
21901;SDS011;11115;46.038;14.612;2023-02-01T15:11:00;7.13;;;4.50;;
21901;SDS011;11115;46.038;14.612;2023-02-01T15:13:36;12.20;;;5.10;;
21901;SDS011;11115;46.038;14.612;2023-02-01T15:18:36;43.63;;;16.07;;
21901;SDS011;11115;46.038;14.612;2023-02-01T15:21:05;16.30;;;8.23;;
21901;SDS011;11115;46.038;14.612;2023-02-01T15:24:09;13.53;;;4.97;;
21901;SDS011;11115;46.038;14.612;2023-02-01T15:26:38;11.37;;;3.53;;
21901;SDS011;11115;46.038;14.612;2023-02-01T15:29:10;10.43;;;5.07;;
21901;SDS011;11115;46.038;14.612;2023-02-01T15:31:43;14.07;;;4.17;;
21901;SDS011;11115;46.038;14.612;2023-02-01T15:34:13;6.80;;;2.97;;
21901;SDS011;11115;46.038;14.612;2023-02-01T15:36:41;13.97;;;3.13;;
21901;SDS011;11115;46.038;14.612;2023-02-01T15:39:27;14.93;;;5.43;;
21901;SDS011;11115;46.038;14.612;2023-02-01T15:41:59;14.50;;;5.87;;
21901;SDS011;11115;46.038;14.612;2023-02-01T15:44:30;10.23;;;4.80;;
21901;SDS011;11115;46.038;14.612;2023-02-01T15:47:05;11.57;;;4.10;;
21901;SDS011;11115;46.038;14.612;2023-02-01T15:49:43;17.53;;;4.17;;
21901;SDS011;11115;46.038;14.612;2023-02-01T15:52:24;6.78;;;3.00;;
21901;SDS011;11115;46.038;14.612;2023-02-01T15:54:55;23.55;;;6.75;;
21901;SDS011;11115;46.038;14.612;2023-02-01T15:57:26;18.40;;;5.78;;
21901;SDS011;11115;46.038;14.612;2023-02-01T15:59:59;9.13;;;3.13;;
21901;SDS011;11115;46.038;14.612;2023-02-01T16:02:41;10.10;;;3.53;;
21901;SDS011;11115;46.038;14.612;2023-02-01T16:05:37;13.88;;;5.97;;
21901;SDS011;11115;46.038;14.612;2023-02-01T16:08:25;11.10;;;3.73;;
21901;SDS011;11115;46.038;14.612;2023-02-01T16:11:00;10.70;;;5.00;;
21901;SDS011;11115;46.038;14.612;2023-02-01T16:13:41;16.27;;;5.53;;
21901;SDS011;11115;46.038;14.612;2023-02-01T16:16:09;11.20;;;4.83;;
21901;SDS011;11115;46.038;14.612;2023-02-01T16:18:40;19.70;;;5.37;;
21901;SDS011;11115;46.038;14.612;2023-02-01T16:21:08;14.87;;;5.53;;
21901;SDS011;11115;46.038;14.612;2023-02-01T16:23:36;11.73;;;4.00;;
21901;SDS011;11115;46.038;14.612;2023-02-01T16:26:04;21.83;;;5.43;;
21901;SDS011;11115;46.038;14.612;2023-02-01T16:28:32;10.87;;;6.27;;
21901;SDS011;11115;46.038;14.612;2023-02-01T16:31:00;20.57;;;6.07;;
21901;SDS011;11115;46.038;14.612;2023-02-01T16:33:29;33.40;;;13.37;;
21901;SDS011;11115;46.038;14.612;2023-02-01T16:35:56;17.90;;;9.50;;
21901;SDS011;11115;46.038;14.612;2023-02-01T16:38:28;15.98;;;4.60;;
21901;SDS011;11115;46.038;14.612;2023-02-01T16:40:56;10.97;;;4.10;;
21901;SDS011;11115;46.038;14.612;2023-02-01T16:43:25;15.23;;;4.57;;
21901;SDS011;11115;46.038;14.612;2023-02-01T16:45:53;12.67;;;6.83;;
21901;SDS011;11115;46.038;14.612;2023-02-01T16:48:27;25.67;;;10.60;;
21901;SDS011;11115;46.038;14.612;2023-02-01T16:50:59;19.45;;;8.82;;
21901;SDS011;11115;46.038;14.612;2023-02-01T16:53:30;12.73;;;5.55;;
21901;SDS011;11115;46.038;14.612;2023-02-01T16:56:14;17.60;;;4.77;;
21901;SDS011;11115;46.038;14.612;2023-02-01T16:58:43;12.30;;;3.60;;
21901;SDS011;11115;46.038;14.612;2023-02-01T17:01:12;14.20;;;5.13;;
21901;SDS011;11115;46.038;14.612;2023-02-01T17:03:42;24.93;;;7.33;;
21901;SDS011;11115;46.038;14.612;2023-02-01T17:06:13;16.30;;;6.10;;
21901;SDS011;11115;46.038;14.612;2023-02-01T17:08:45;16.73;;;8.10;;
21901;SDS011;11115;46.038;14.612;2023-02-01T17:11:16;17.07;;;6.63;;
21901;SDS011;11115;46.038;14.612;2023-02-01T17:13:45;22.47;;;7.80;;
21901;SDS011;11115;46.038;14.612;2023-02-01T17:18:51;18.77;;;8.63;;
21901;SDS011;11115;46.038;14.612;2023-02-01T17:21:23;11.03;;;7.03;;
21901;SDS011;11115;46.038;14.612;2023-02-01T17:23:53;15.37;;;6.73;;
21901;SDS011;11115;46.038;14.612;2023-02-01T17:26:21;15.00;;;6.10;;
21901;SDS011;11115;46.038;14.612;2023-02-01T17:28:49;16.23;;;6.80;;
21901;SDS011;11115;46.038;14.612;2023-02-01T17:31:16;18.57;;;8.80;;
21901;SDS011;11115;46.038;14.612;2023-02-01T17:33:44;20.37;;;9.23;;
21901;SDS011;11115;46.038;14.612;2023-02-01T17:36:13;15.17;;;7.40;;
21901;SDS011;11115;46.038;14.612;2023-02-01T17:38:42;14.90;;;7.27;;